sensor_id;sensor_type;location;lat;lon;timestamp;P1;durP1;ratioP1;P2;durP2;ratioP2
16326;SDS011;34812;49.846;9.610;2024-03-02T00:04:22;5.23;;;4.50;;
16326;SDS011;34812;49.846;9.610;2024-03-02T00:09:24;8.47;;;4.67;;
16326;SDS011;34812;49.846;9.610;2024-03-02T00:14:29;7.07;;;5.13;;
16326;SDS011;34812;49.846;9.610;2024-03-02T00:19:31;6.47;;;4.47;;
16326;SDS011;34812;49.846;9.610;2024-03-02T00:24:34;5.27;;;3.87;;
16326;SDS011;34812;49.846;9.610;2024-03-02T00:29:37;3.30;;;2.93;;
16326;SDS011;34812;49.846;9.610;2024-03-02T00:34:39;4.53;;;2.93;;
16326;SDS011;34812;49.846;9.610;2024-03-02T00:39:41;6.97;;;3.90;;
16326;SDS011;34812;49.846;9.610;2024-03-02T00:44:45;7.33;;;4.03;;
16326;SDS011;34812;49.846;9.610;2024-03-02T00:49:48;4.83;;;3.00;;
16326;SDS011;34812;49.846;9.610;2024-03-02T00:54:50;4.43;;;3.87;;
16326;SDS011;34812;49.846;9.610;2024-03-02T00:59:53;3.53;;;3.23;;
16326;SDS011;34812;49.846;9.610;2024-03-02T01:04:55;5.13;;;3.83;;
16326;SDS011;34812;49.846;9.610;2024-03-02T01:09:57;4.97;;;3.93;;
16326;SDS011;34812;49.846;9.610;2024-03-02T01:15:01;3.30;;;2.87;;
16326;SDS011;34812;49.846;9.610;2024-03-02T01:20:04;6.97;;;4.73;;
16326;SDS011;34812;49.846;9.610;2024-03-02T01:25:09;4.23;;;3.53;;
16326;SDS011;34812;49.846;9.610;2024-03-02T01:30:13;4.43;;;4.03;;
16326;SDS011;34812;49.846;9.610;2024-03-02T01:35:15;8.70;;;3.27;;
16326;SDS011;34812;49.846;9.610;2024-03-02T01:40:17;7.40;;;3.43;;
16326;SDS011;34812;49.846;9.610;2024-03-02T01:45:20;13.73;;;4.37;;
16326;SDS011;34812;49.846;9.610;2024-03-02T01:50:26;3.80;;;3.23;;
16326;SDS011;34812;49.846;9.610;2024-03-02T01:55:28;9.33;;;3.57;;
16326;SDS011;34812;49.846;9.610;2024-03-02T02:00:32;3.73;;;3.10;;
16326;SDS011;34812;49.846;9.610;2024-03-02T02:05:34;4.37;;;3.60;;
16326;SDS011;34812;49.846;9.610;2024-03-02T02:10:36;5.03;;;3.17;;
16326;SDS011;34812;49.846;9.610;2024-03-02T02:15:40;3.57;;;3.27;;
16326;SDS011;34812;49.846;9.610;2024-03-02T02:20:42;4.93;;;3.47;;
16326;SDS011;34812;49.846;9.610;2024-03-02T02:25:45;4.90;;;3.10;;
16326;SDS011;34812;49.846;9.610;2024-03-02T02:30:47;4.03;;;3.63;;
16326;SDS011;34812;49.846;9.610;2024-03-02T02:35:49;4.00;;;3.63;;
16326;SDS011;34812;49.846;9.610;2024-03-02T02:40:53;4.20;;;3.53;;
16326;SDS011;34812;49.846;9.610;2024-03-02T02:45:55;8.67;;;4.33;;
16326;SDS011;34812;49.846;9.610;2024-03-02T02:50:57;5.00;;;3.70;;
16326;SDS011;34812;49.846;9.610;2024-03-02T02:56:01;5.20;;;3.80;;
16326;SDS011;34812;49.846;9.610;2024-03-02T03:01:03;3.47;;;2.57;;
16326;SDS011;34812;49.846;9.610;2024-03-02T03:06:05;2.73;;;2.63;;
16326;SDS011;34812;49.846;9.610;2024-03-02T03:11:08;7.00;;;3.27;;
16326;SDS011;34812;49.846;9.610;2024-03-02T03:16:10;6.07;;;3.50;;
16326;SDS011;34812;49.846;9.610;2024-03-02T03:21:12;4.43;;;3.87;;
16326;SDS011;34812;49.846;9.610;2024-03-02T03:26:16;3.50;;;3.20;;
16326;SDS011;34812;49.846;9.610;2024-03-02T03:31:18;4.07;;;3.40;;
16326;SDS011;34812;49.846;9.610;2024-03-02T03:36:20;4.17;;;3.80;;
16326;SDS011;34812;49.846;9.610;2024-03-02T03:41:23;5.40;;;4.00;;
16326;SDS011;34812;49.846;9.610;2024-03-02T03:46:25;4.03;;;3.03;;
16326;SDS011;34812;49.846;9.610;2024-03-02T03:51:28;3.10;;;2.90;;
16326;SDS011;34812;49.846;9.610;2024-03-02T03:56:31;9.83;;;3.97;;
16326;SDS011;34812;49.846;9.610;2024-03-02T04:01:33;6.07;;;4.63;;
16326;SDS011;34812;49.846;9.610;2024-03-02T04:06:36;4.60;;;3.43;;
16326;SDS011;34812;49.846;9.610;2024-03-02T04:11:39;7.00;;;4.63;;
16326;SDS011;34812;49.846;9.610;2024-03-02T04:16:41;4.33;;;3.90;;
16326;SDS011;34812;49.846;9.610;2024-03-02T04:21:43;10.70;;;4.03;;
16326;SDS011;34812;49.846;9.610;2024-03-02T04:26:47;4.90;;;4.03;;
16326;SDS011;34812;49.846;9.610;2024-03-02T04:31:49;7.07;;;4.43;;
16326;SDS011;34812;49.846;9.610;2024-03-02T04:36:51;4.03;;;3.73;;
16326;SDS011;34812;49.846;9.610;2024-03-02T04:41:54;23.87;;;5.57;;
16326;SDS011;34812;49.846;9.610;2024-03-02T04:46:56;4.60;;;4.00;;
16326;SDS011;34812;49.846;9.610;2024-03-02T04:51:58;11.43;;;4.77;;
16326;SDS011;34812;49.846;9.610;2024-03-02T04:57:02;7.23;;;4.80;;
16326;SDS011;34812;49.846;9.610;2024-03-02T05:02:04;8.63;;;4.60;;
16326;SDS011;34812;49.846;9.610;2024-03-02T05:07:06;5.23;;;4.27;;
16326;SDS011;34812;49.846;9.610;2024-03-02T05:12:10;5.20;;;3.70;;
16326;SDS011;34812;49.846;9.610;2024-03-02T05:17:32;7.83;;;5.13;;
16326;SDS011;34812;49.846;9.610;2024-03-02T05:22:34;9.17;;;4.23;;
16326;SDS011;34812;49.846;9.610;2024-03-02T05:27:37;5.90;;;5.00;;
16326;SDS011;34812;49.846;9.610;2024-03-02T05:32:39;7.00;;;4.77;;
16326;SDS011;34812;49.846;9.610;2024-03-02T05:37:41;10.10;;;4.77;;
16326;SDS011;34812;49.846;9.610;2024-03-02T05:42:45;5.93;;;4.50;;
16326;SDS011;34812;49.846;9.610;2024-03-02T05:47:47;7.87;;;4.77;;
16326;SDS011;34812;49.846;9.610;2024-03-02T05:52:49;11.03;;;3.87;;
16326;SDS011;34812;49.846;9.610;2024-03-02T05:57:52;6.27;;;4.77;;
16326;SDS011;34812;49.846;9.610;2024-03-02T06:03:16;7.17;;;4.83;;
16326;SDS011;34812;49.846;9.610;2024-03-02T06:08:18;9.03;;;4.97;;
16326;SDS011;34812;49.846;9.610;2024-03-02T06:13:22;5.67;;;5.03;;
16326;SDS011;34812;49.846;9.610;2024-03-02T06:18:25;12.10;;;4.40;;
16326;SDS011;34812;49.846;9.610;2024-03-02T06:23:28;8.27;;;5.57;;
16326;SDS011;34812;49.846;9.610;2024-03-02T06:28:31;7.97;;;5.13;;
16326;SDS011;34812;49.846;9.610;2024-03-02T06:33:33;11.13;;;6.23;;
16326;SDS011;34812;49.846;9.610;2024-03-02T06:38:35;10.20;;;5.63;;
16326;SDS011;34812;49.846;9.610;2024-03-02T06:43:39;8.77;;;5.20;;
16326;SDS011;34812;49.846;9.610;2024-03-02T06:48:41;15.30;;;5.20;;
16326;SDS011;34812;49.846;9.610;2024-03-02T06:53:43;7.73;;;5.77;;
16326;SDS011;34812;49.846;9.610;2024-03-02T06:58:47;9.23;;;5.73;;
16326;SDS011;34812;49.846;9.610;2024-03-02T07:03:49;10.37;;;5.77;;
16326;SDS011;34812;49.846;9.610;2024-03-02T07:08:51;5.67;;;5.13;;
16326;SDS011;34812;49.846;9.610;2024-03-02T07:13:55;8.87;;;5.50;;
16326;SDS011;34812;49.846;9.610;2024-03-02T07:18:57;7.73;;;5.73;;
16326;SDS011;34812;49.846;9.610;2024-03-02T07:24:01;9.40;;;5.43;;
16326;SDS011;34812;49.846;9.610;2024-03-02T07:29:05;6.20;;;5.53;;
16326;SDS011;34812;49.846;9.610;2024-03-02T07:34:07;12.57;;;6.30;;
16326;SDS011;34812;49.846;9.610;2024-03-02T07:39:09;8.57;;;5.37;;
16326;SDS011;34812;49.846;9.610;2024-03-02T07:44:13;9.20;;;6.17;;
16326;SDS011;34812;49.846;9.610;2024-03-02T07:49:15;9.17;;;6.77;;
16326;SDS011;34812;49.846;9.610;2024-03-02T07:54:17;9.13;;;6.33;;
16326;SDS011;34812;49.846;9.610;2024-03-02T07:59:21;7.13;;;5.13;;
16326;SDS011;34812;49.846;9.610;2024-03-02T08:04:23;13.03;;;6.70;;
16326;SDS011;34812;49.846;9.610;2024-03-02T08:09:25;12.03;;;7.40;;
16326;SDS011;34812;49.846;9.610;2024-03-02T08:14:28;9.03;;;6.40;;
16326;SDS011;34812;49.846;9.610;2024-03-02T08:19:30;11.50;;;7.10;;
16326;SDS011;34812;49.846;9.610;2024-03-02T08:24:32;12.43;;;7.33;;
16326;SDS011;34812;49.846;9.610;2024-03-02T08:29:36;8.00;;;5.73;;
16326;SDS011;34812;49.846;9.610;2024-03-02T08:34:38;9.70;;;7.53;;
16326;SDS011;34812;49.846;9.610;2024-03-02T08:39:40;11.20;;;6.80;;
16326;SDS011;34812;49.846;9.610;2024-03-02T08:44:44;9.43;;;7.20;;
16326;SDS011;34812;49.846;9.610;2024-03-02T08:49:46;12.43;;;8.50;;
16326;SDS011;34812;49.846;9.610;2024-03-02T08:54:48;11.63;;;8.20;;
16326;SDS011;34812;49.846;9.610;2024-03-02T08:59:51;15.17;;;8.43;;
16326;SDS011;34812;49.846;9.610;2024-03-02T09:04:53;12.97;;;8.07;;
16326;SDS011;34812;49.846;9.610;2024-03-02T09:09:55;14.33;;;7.07;;
16326;SDS011;34812;49.846;9.610;2024-03-02T09:14:59;10.90;;;7.93;;
16326;SDS011;34812;49.846;9.610;2024-03-02T09:20:01;12.97;;;8.40;;
16326;SDS011;34812;49.846;9.610;2024-03-02T09:25:04;11.23;;;7.70;;
16326;SDS011;34812;49.846;9.610;2024-03-02T09:30:09;13.30;;;8.17;;
16326;SDS011;34812;49.846;9.610;2024-03-02T09:35:11;12.83;;;7.60;;
16326;SDS011;34812;49.846;9.610;2024-03-02T09:40:13;13.07;;;7.67;;
16326;SDS011;34812;49.846;9.610;2024-03-02T09:45:17;14.90;;;8.60;;
16326;SDS011;34812;49.846;9.610;2024-03-02T09:50:22;11.60;;;7.07;;
16326;SDS011;34812;49.846;9.610;2024-03-02T09:55:24;13.70;;;6.30;;
16326;SDS011;34812;49.846;9.610;2024-03-02T10:00:28;9.83;;;6.73;;
16326;SDS011;34812;49.846;9.610;2024-03-02T10:05:30;12.53;;;6.73;;
16326;SDS011;34812;49.846;9.610;2024-03-02T10:10:36;12.60;;;7.83;;
16326;SDS011;34812;49.846;9.610;2024-03-02T10:15:41;13.60;;;8.33;;
16326;SDS011;34812;49.846;9.610;2024-03-02T10:20:43;9.93;;;7.10;;
16326;SDS011;34812;49.846;9.610;2024-03-02T10:25:45;11.80;;;7.33;;
16326;SDS011;34812;49.846;9.610;2024-03-02T10:30:49;15.43;;;8.13;;
16326;SDS011;34812;49.846;9.610;2024-03-02T10:35:52;11.70;;;7.60;;
16326;SDS011;34812;49.846;9.610;2024-03-02T10:40:54;12.37;;;6.67;;
16326;SDS011;34812;49.846;9.610;2024-03-02T10:46:00;8.20;;;6.03;;
16326;SDS011;34812;49.846;9.610;2024-03-02T10:51:02;11.97;;;7.60;;
16326;SDS011;34812;49.846;9.610;2024-03-02T10:56:05;9.27;;;6.23;;
16326;SDS011;34812;49.846;9.610;2024-03-02T11:01:10;10.30;;;6.37;;
16326;SDS011;34812;49.846;9.610;2024-03-02T11:06:13;11.05;;;6.32;;
16326;SDS011;34812;49.846;9.610;2024-03-02T11:11:15;7.93;;;5.32;;
16326;SDS011;34812;49.846;9.610;2024-03-02T11:16:23;10.05;;;6.20;;
16326;SDS011;34812;49.846;9.610;2024-03-02T11:21:30;8.75;;;5.95;;
16326;SDS011;34812;49.846;9.610;2024-03-02T11:26:33;9.77;;;5.80;;
16326;SDS011;34812;49.846;9.610;2024-03-02T11:31:59;7.60;;;5.50;;
16326;SDS011;34812;49.846;9.610;2024-03-02T11:37:02;7.60;;;5.10;;
16326;SDS011;34812;49.846;9.610;2024-03-02T11:42:05;7.32;;;4.93;;
16326;SDS011;34812;49.846;9.610;2024-03-02T11:47:10;7.82;;;5.78;;
16326;SDS011;34812;49.846;9.610;2024-03-02T11:52:14;6.43;;;4.68;;
16326;SDS011;34812;49.846;9.610;2024-03-02T11:57:18;6.03;;;4.50;;
16326;SDS011;34812;49.846;9.610;2024-03-02T12:02:23;6.45;;;4.18;;
16326;SDS011;34812;49.846;9.610;2024-03-02T12:07:25;5.20;;;3.55;;
16326;SDS011;34812;49.846;9.610;2024-03-02T12:12:28;3.55;;;2.70;;
16326;SDS011;34812;49.846;9.610;2024-03-02T12:17:31;2.78;;;2.08;;
16326;SDS011;34812;49.846;9.610;2024-03-02T12:22:33;4.18;;;2.45;;
16326;SDS011;34812;49.846;9.610;2024-03-02T12:27:36;4.32;;;2.63;;
16326;SDS011;34812;49.846;9.610;2024-03-02T12:32:39;4.50;;;2.50;;
16326;SDS011;34812;49.846;9.610;2024-03-02T12:37:42;4.90;;;2.92;;
16326;SDS011;34812;49.846;9.610;2024-03-02T12:42:45;3.20;;;2.30;;
16326;SDS011;34812;49.846;9.610;2024-03-02T12:47:49;2.78;;;2.17;;
16326;SDS011;34812;49.846;9.610;2024-03-02T12:52:52;4.07;;;2.58;;
16326;SDS011;34812;49.846;9.610;2024-03-02T12:57:55;3.58;;;2.53;;
16326;SDS011;34812;49.846;9.610;2024-03-02T13:02:58;3.15;;;2.22;;
16326;SDS011;34812;49.846;9.610;2024-03-02T13:08:03;2.33;;;1.85;;
16326;SDS011;34812;49.846;9.610;2024-03-02T13:13:07;3.50;;;1.70;;
16326;SDS011;34812;49.846;9.610;2024-03-02T13:18:10;2.08;;;1.60;;
16326;SDS011;34812;49.846;9.610;2024-03-02T13:23:12;2.25;;;1.67;;
16326;SDS011;34812;49.846;9.610;2024-03-02T13:28:15;2.28;;;1.45;;
16326;SDS011;34812;49.846;9.610;2024-03-02T13:33:19;2.17;;;1.45;;
16326;SDS011;34812;49.846;9.610;2024-03-02T13:38:22;1.50;;;1.20;;
16326;SDS011;34812;49.846;9.610;2024-03-02T13:43:24;1.75;;;1.20;;
16326;SDS011;34812;49.846;9.610;2024-03-02T13:48:28;1.83;;;1.55;;
16326;SDS011;34812;49.846;9.610;2024-03-02T13:53:30;1.98;;;1.38;;
16326;SDS011;34812;49.846;9.610;2024-03-02T13:58:33;1.90;;;1.40;;
16326;SDS011;34812;49.846;9.610;2024-03-02T14:03:36;1.33;;;1.10;;
16326;SDS011;34812;49.846;9.610;2024-03-02T14:08:39;1.77;;;1.10;;
16326;SDS011;34812;49.846;9.610;2024-03-02T14:13:44;2.78;;;1.00;;
16326;SDS011;34812;49.846;9.610;2024-03-02T14:18:51;1.00;;;0.90;;
16326;SDS011;34812;49.846;9.610;2024-03-02T14:23:53;1.92;;;1.15;;
16326;SDS011;34812;49.846;9.610;2024-03-02T14:28:55;1.27;;;1.05;;
16326;SDS011;34812;49.846;9.610;2024-03-02T14:33:59;1.20;;;1.00;;
16326;SDS011;34812;49.846;9.610;2024-03-02T14:39:01;1.40;;;0.90;;
16326;SDS011;34812;49.846;9.610;2024-03-02T14:44:04;0.55;;;0.52;;
16326;SDS011;34812;49.846;9.610;2024-03-02T14:49:09;0.80;;;0.68;;
16326;SDS011;34812;49.846;9.610;2024-03-02T14:54:12;0.60;;;0.60;;
16326;SDS011;34812;49.846;9.610;2024-03-02T14:59:14;4.13;;;1.30;;
16326;SDS011;34812;49.846;9.610;2024-03-02T15:04:17;2.25;;;1.60;;
16326;SDS011;34812;49.846;9.610;2024-03-02T15:09:20;4.30;;;1.70;;
16326;SDS011;34812;49.846;9.610;2024-03-02T15:14:23;1.83;;;1.15;;
16326;SDS011;34812;49.846;9.610;2024-03-02T15:19:27;1.50;;;1.38;;
16326;SDS011;34812;49.846;9.610;2024-03-02T15:24:29;2.20;;;1.50;;
16326;SDS011;34812;49.846;9.610;2024-03-02T15:29:31;1.00;;;0.90;;
16326;SDS011;34812;49.846;9.610;2024-03-02T15:34:35;0.95;;;0.80;;
16326;SDS011;34812;49.846;9.610;2024-03-02T15:39:37;0.70;;;0.57;;
16326;SDS011;34812;49.846;9.610;2024-03-02T15:44:39;1.70;;;1.00;;
16326;SDS011;34812;49.846;9.610;2024-03-02T15:49:43;0.93;;;0.90;;
16326;SDS011;34812;49.846;9.610;2024-03-02T15:54:45;1.65;;;0.70;;
16326;SDS011;34812;49.846;9.610;2024-03-02T15:59:47;1.50;;;1.02;;
16326;SDS011;34812;49.846;9.610;2024-03-02T16:04:51;1.65;;;0.90;;
16326;SDS011;34812;49.846;9.610;2024-03-02T16:09:53;2.35;;;1.15;;
16326;SDS011;34812;49.846;9.610;2024-03-02T16:14:56;1.83;;;1.55;;
16326;SDS011;34812;49.846;9.610;2024-03-02T16:20:00;0.90;;;0.82;;
16326;SDS011;34812;49.846;9.610;2024-03-02T16:25:06;0.95;;;0.73;;
16326;SDS011;34812;49.846;9.610;2024-03-02T16:30:08;2.80;;;1.13;;
16326;SDS011;34812;49.846;9.610;2024-03-02T16:35:12;1.25;;;0.93;;
16326;SDS011;34812;49.846;9.610;2024-03-02T16:40:15;2.78;;;2.53;;
16326;SDS011;34812;49.846;9.610;2024-03-02T16:45:17;1.80;;;1.48;;
16326;SDS011;34812;49.846;9.610;2024-03-02T16:50:20;0.80;;;0.75;;
16326;SDS011;34812;49.846;9.610;2024-03-02T16:55:22;2.08;;;1.30;;
16326;SDS011;34812;49.846;9.610;2024-03-02T17:00:25;1.83;;;1.35;;
16326;SDS011;34812;49.846;9.610;2024-03-02T17:05:28;1.95;;;1.30;;
16326;SDS011;34812;49.846;9.610;2024-03-02T17:10:30;4.43;;;1.88;;
16326;SDS011;34812;49.846;9.610;2024-03-02T17:15:32;3.38;;;2.50;;
16326;SDS011;34812;49.846;9.610;2024-03-02T17:20:36;3.22;;;2.47;;
16326;SDS011;34812;49.846;9.610;2024-03-02T17:25:38;2.60;;;2.23;;
16326;SDS011;34812;49.846;9.610;2024-03-02T17:30:40;2.97;;;2.00;;
16326;SDS011;34812;49.846;9.610;2024-03-02T17:35:43;3.53;;;2.47;;
16326;SDS011;34812;49.846;9.610;2024-03-02T17:40:47;4.23;;;3.20;;
16326;SDS011;34812;49.846;9.610;2024-03-02T17:45:49;6.50;;;2.67;;
16326;SDS011;34812;49.846;9.610;2024-03-02T17:50:53;3.77;;;2.87;;
16326;SDS011;34812;49.846;9.610;2024-03-02T17:55:55;4.97;;;3.63;;
16326;SDS011;34812;49.846;9.610;2024-03-02T18:00:57;4.53;;;3.27;;
16326;SDS011;34812;49.846;9.610;2024-03-02T18:06:03;6.27;;;3.50;;
16326;SDS011;34812;49.846;9.610;2024-03-02T18:11:05;6.00;;;3.47;;
16326;SDS011;34812;49.846;9.610;2024-03-02T18:16:07;8.63;;;3.97;;
16326;SDS011;34812;49.846;9.610;2024-03-02T18:21:11;5.97;;;4.07;;
16326;SDS011;34812;49.846;9.610;2024-03-02T18:26:13;7.57;;;3.43;;
16326;SDS011;34812;49.846;9.610;2024-03-02T18:31:15;7.53;;;4.03;;
16326;SDS011;34812;49.846;9.610;2024-03-02T18:36:23;9.50;;;4.47;;
16326;SDS011;34812;49.846;9.610;2024-03-02T18:41:25;5.40;;;3.97;;
16326;SDS011;34812;49.846;9.610;2024-03-02T18:46:27;8.93;;;4.63;;
16326;SDS011;34812;49.846;9.610;2024-03-02T18:51:30;10.00;;;4.83;;
16326;SDS011;34812;49.846;9.610;2024-03-02T18:56:32;8.80;;;3.87;;
16326;SDS011;34812;49.846;9.610;2024-03-02T19:01:34;7.57;;;4.27;;
16326;SDS011;34812;49.846;9.610;2024-03-02T19:06:38;7.13;;;4.47;;
16326;SDS011;34812;49.846;9.610;2024-03-02T19:11:40;7.27;;;4.33;;
16326;SDS011;34812;49.846;9.610;2024-03-02T19:16:42;10.50;;;4.47;;
16326;SDS011;34812;49.846;9.610;2024-03-02T19:21:46;7.33;;;4.60;;
16326;SDS011;34812;49.846;9.610;2024-03-02T19:26:48;8.63;;;5.30;;
16326;SDS011;34812;49.846;9.610;2024-03-02T19:31:50;8.30;;;5.23;;
16326;SDS011;34812;49.846;9.610;2024-03-02T19:36:53;15.77;;;4.67;;
16326;SDS011;34812;49.846;9.610;2024-03-02T19:41:57;13.50;;;7.03;;
16326;SDS011;34812;49.846;9.610;2024-03-02T19:47:00;8.80;;;4.77;;
16326;SDS011;34812;49.846;9.610;2024-03-02T19:52:04;9.80;;;5.40;;
16326;SDS011;34812;49.846;9.610;2024-03-02T19:57:06;6.53;;;4.10;;
16326;SDS011;34812;49.846;9.610;2024-03-02T20:02:08;9.40;;;5.00;;
16326;SDS011;34812;49.846;9.610;2024-03-02T20:07:13;9.80;;;4.90;;
16326;SDS011;34812;49.846;9.610;2024-03-02T20:12:15;11.77;;;6.10;;
16326;SDS011;34812;49.846;9.610;2024-03-02T20:17:17;10.30;;;5.23;;
16326;SDS011;34812;49.846;9.610;2024-03-02T20:22:20;10.07;;;5.23;;
16326;SDS011;34812;49.846;9.610;2024-03-02T20:27:23;9.27;;;5.03;;
16326;SDS011;34812;49.846;9.610;2024-03-02T20:32:25;13.03;;;5.70;;
16326;SDS011;34812;49.846;9.610;2024-03-02T20:37:28;10.40;;;6.73;;
16326;SDS011;34812;49.846;9.610;2024-03-02T20:42:30;8.47;;;5.17;;
16326;SDS011;34812;49.846;9.610;2024-03-02T20:47:32;7.57;;;5.03;;
16326;SDS011;34812;49.846;9.610;2024-03-02T20:52:36;9.77;;;6.37;;
16326;SDS011;34812;49.846;9.610;2024-03-02T20:57:38;12.87;;;5.80;;
16326;SDS011;34812;49.846;9.610;2024-03-02T21:02:40;23.70;;;6.17;;
16326;SDS011;34812;49.846;9.610;2024-03-02T21:07:46;8.33;;;5.37;;
16326;SDS011;34812;49.846;9.610;2024-03-02T21:12:49;10.33;;;5.77;;
16326;SDS011;34812;49.846;9.610;2024-03-02T21:17:51;13.13;;;6.47;;
16326;SDS011;34812;49.846;9.610;2024-03-02T21:22:55;12.13;;;6.93;;
16326;SDS011;34812;49.846;9.610;2024-03-02T21:27:57;9.50;;;6.60;;
16326;SDS011;34812;49.846;9.610;2024-03-02T21:32:59;11.53;;;7.30;;
16326;SDS011;34812;49.846;9.610;2024-03-02T21:38:03;12.40;;;7.30;;
16326;SDS011;34812;49.846;9.610;2024-03-02T21:43:07;10.30;;;5.90;;
16326;SDS011;34812;49.846;9.610;2024-03-02T21:48:09;12.40;;;6.47;;
16326;SDS011;34812;49.846;9.610;2024-03-02T21:53:12;10.10;;;4.77;;
16326;SDS011;34812;49.846;9.610;2024-03-02T21:58:15;12.93;;;5.47;;
16326;SDS011;34812;49.846;9.610;2024-03-02T22:03:17;9.50;;;5.77;;
16326;SDS011;34812;49.846;9.610;2024-03-02T22:08:21;9.27;;;6.17;;
16326;SDS011;34812;49.846;9.610;2024-03-02T22:13:23;16.33;;;6.00;;
16326;SDS011;34812;49.846;9.610;2024-03-02T22:18:25;8.77;;;5.50;;
16326;SDS011;34812;49.846;9.610;2024-03-02T22:23:28;10.07;;;5.80;;
16326;SDS011;34812;49.846;9.610;2024-03-02T22:28:30;13.57;;;4.50;;
16326;SDS011;34812;49.846;9.610;2024-03-02T22:33:32;9.87;;;5.50;;
16326;SDS011;34812;49.846;9.610;2024-03-02T22:38:36;11.07;;;5.70;;
16326;SDS011;34812;49.846;9.610;2024-03-02T22:43:38;9.13;;;5.97;;
16326;SDS011;34812;49.846;9.610;2024-03-02T22:48:40;10.30;;;6.43;;
16326;SDS011;34812;49.846;9.610;2024-03-02T22:53:43;15.77;;;8.80;;
16326;SDS011;34812;49.846;9.610;2024-03-02T22:58:46;12.23;;;6.67;;
16326;SDS011;34812;49.846;9.610;2024-03-02T23:03:48;11.33;;;6.47;;
16326;SDS011;34812;49.846;9.610;2024-03-02T23:08:51;11.03;;;7.53;;
16326;SDS011;34812;49.846;9.610;2024-03-02T23:13:53;12.67;;;6.93;;
16326;SDS011;34812;49.846;9.610;2024-03-02T23:18:55;9.97;;;7.10;;
16326;SDS011;34812;49.846;9.610;2024-03-02T23:23:59;9.13;;;6.00;;
16326;SDS011;34812;49.846;9.610;2024-03-02T23:29:01;8.63;;;5.87;;
16326;SDS011;34812;49.846;9.610;2024-03-02T23:34:03;12.83;;;7.47;;
16326;SDS011;34812;49.846;9.610;2024-03-02T23:39:06;14.23;;;5.90;;
16326;SDS011;34812;49.846;9.610;2024-03-02T23:44:10;10.97;;;6.60;;
16326;SDS011;34812;49.846;9.610;2024-03-02T23:49:13;10.57;;;6.63;;
16326;SDS011;34812;49.846;9.610;2024-03-02T23:54:17;10.47;;;6.13;;
16326;SDS011;34812;49.846;9.610;2024-03-02T23:59:19;11.50;;;6.67;;
